Time;durP1;ratioP1;P1;durP2;ratioP2;P2;SDS_P1;SDS_P2;PMS_P1;PMS_P2;Temp;Humidity;BMP_temperature;BMP_pressure;BME280_temperature;BME280_humidity;BME280_pressure;Samples;Min_cycle;Max_cycle;Signal;HPM_P1;HPM_P2
2022/05/29 00:02:17;;;;;;;2.17;2.00;;;16.40;99.90;;;;;;4926946;29;20431;-60
2022/05/29 00:04:51;;;;;;;3.00;2.17;;;16.50;99.90;;;;;;4926231;29;20463;-60
2022/05/29 00:07:22;;;;;;;2.60;2.40;;;16.60;99.90;;;;;;4926529;29;20462;-60
2022/05/29 00:09:53;;;;;;;4.33;2.70;;;16.70;99.90;;;;;;4925369;29;20458;-60
2022/05/29 00:15:16;;;;;;;3.20;2.17;;;17.00;99.90;;;;;;4925020;29;20517;-60
2022/05/29 00:17:47;;;;;;;3.87;2.77;;;17.10;99.90;;;;;;4920060;29;20455;-61
2022/05/29 00:20:47;;;;;;;2.87;2.67;;;17.20;99.90;;;;;;4907555;29;20456;-60
2022/05/29 00:23:27;;;;;;;3.67;2.80;;;17.10;99.90;;;;;;4907593;29;20414;-61
2022/05/29 00:26:00;;;;;;;2.77;2.60;;;16.70;99.90;;;;;;4906502;29;20804;-61
2022/05/29 00:28:31;;;;;;;3.03;2.37;;;16.90;99.90;;;;;;4906995;29;20467;-60
2022/05/29 00:31:02;;;;;;;2.50;2.30;;;16.90;99.90;;;;;;4907006;29;20569;-59
2022/05/29 00:33:33;;;;;;;3.67;3.37;;;16.80;99.90;;;;;;4907405;29;20519;-59
2022/05/29 00:36:07;;;;;;;2.43;2.03;;;16.70;99.90;;;;;;4907185;29;20451;-60
2022/05/29 00:38:47;;;;;;;2.17;1.60;;;16.40;99.90;;;;;;4907267;29;20467;-59
2022/05/29 00:41:29;;;;;;;1.70;1.60;;;16.20;99.90;;;;;;4907256;29;20467;-60
2022/05/29 00:44:14;;;;;;;1.33;1.23;;;16.00;99.90;;;;;;4918078;29;20454;-60
2022/05/29 00:46:49;;;;;;;1.70;1.60;;;15.80;99.90;;;;;;4925938;29;20465;-60
2022/05/29 00:49:22;;;;;;;1.47;1.20;;;15.60;99.90;;;;;;4925713;29;20450;-60
2022/05/29 00:52:03;;;;;;;1.40;1.30;;;15.50;99.90;;;;;;4926042;29;20469;-60
2022/05/29 00:54:42;;;;;;;2.20;1.00;;;15.50;99.90;;;;;;4924821;29;20509;-60
2022/05/29 00:57:16;;;;;;;1.13;0.70;;;15.40;99.90;;;;;;4926079;29;20525;-59
2022/05/29 00:59:48;;;;;;;0.87;0.87;;;15.30;99.90;;;;;;4926149;29;20439;-60
2022/05/29 01:02:19;;;;;;;2.50;1.00;;;15.30;99.90;;;;;;4925932;29;20462;-60
2022/05/29 01:04:52;;;;;;;2.00;0.80;;;15.30;99.90;;;;;;4925662;29;20946;-60
2022/05/29 01:07:28;;;;;;;9.00;0.93;;;15.40;99.90;;;;;;4925637;29;20478;-60
2022/05/29 01:10:01;;;;;;;0.60;0.43;;;15.30;99.90;;;;;;4924919;29;20458;-60
2022/05/29 01:12:48;;;;;;;1.23;0.50;;;15.20;99.90;;;;;;4925537;29;20446;-60
2022/05/29 01:15:31;;;;;;;1.37;0.53;;;15.10;99.90;;;;;;4925673;29;20501;-60
2022/05/29 01:18:17;;;;;;;1.80;0.80;;;15.10;99.90;;;;;;4917564;29;20940;-60
2022/05/29 01:21:06;;;;;;;1.83;0.43;;;15.10;99.90;;;;;;4906613;29;21284;-60
2022/05/29 01:24:08;;;;;;;1.27;0.50;;;15.00;99.90;;;;;;4906797;29;20940;-60
2022/05/29 01:27:17;;;;;;;0.60;0.50;;;15.00;99.90;;;;;;4904080;29;20463;-60
2022/05/29 01:30:07;;;;;;;0.47;0.47;;;14.90;99.90;;;;;;4908138;29;20459;-60
2022/05/29 01:32:52;;;;;;;0.70;0.50;;;14.70;99.90;;;;;;4910373;29;20462;-60
2022/05/29 01:35:32;;;;;;;1.33;0.60;;;14.60;99.90;;;;;;4909976;29;20514;-60
2022/05/29 01:38:08;;;;;;;1.30;0.60;;;14.60;99.90;;;;;;4910212;29;20457;-60
2022/05/29 01:40:42;;;;;;;0.73;0.50;;;14.70;99.90;;;;;;4909199;29;20455;-60
2022/05/29 01:43:26;;;;;;;1.40;0.67;;;14.70;99.90;;;;;;4910079;29;20466;-60
2022/05/29 01:46:07;;;;;;;1.20;0.60;;;14.70;99.90;;;;;;4909747;29;20483;-60
2022/05/29 01:48:54;;;;;;;2.40;0.30;;;14.70;99.90;;;;;;4909924;29;20451;-60
2022/05/29 01:51:29;;;;;;;0.30;0.23;;;14.60;99.90;;;;;;4910084;29;20455;-60
2022/05/29 01:54:04;;;;;;;0.37;0.30;;;14.50;99.90;;;;;;4908940;29;20896;-60
2022/05/29 01:56:41;;;;;;;0.60;0.30;;;14.50;99.90;;;;;;4910002;29;20463;-60
2022/05/29 01:59:22;;;;;;;0.60;0.40;;;14.50;99.90;;;;;;4909569;29;20447;-60
2022/05/29 02:01:58;;;;;;;2.63;0.47;;;14.50;99.90;;;;;;4909887;29;20446;-60
2022/05/29 02:04:36;;;;;;;0.90;0.33;;;14.40;99.90;;;;;;4909531;29;20447;-60
2022/05/29 02:10:09;;;;;;;0.40;0.40;;;14.40;99.90;;;;;;4927537;29;20477;-60
2022/05/29 02:12:54;;;;;;;1.33;1.23;;;14.40;99.90;;;;;;4928433;29;20455;-61
2022/05/29 02:15:34;;;;;;;1.77;0.70;;;14.40;99.90;;;;;;4928216;29;20505;-61
2022/05/29 02:18:10;;;;;;;1.70;0.70;;;14.30;99.90;;;;;;4928140;29;20462;-61
2022/05/29 02:20:47;;;;;;;1.27;0.60;;;14.30;99.90;;;;;;4928249;29;20552;-61
2022/05/29 02:23:25;;;;;;;0.90;0.50;;;14.20;99.90;;;;;;4928413;29;20450;-60
2022/05/29 02:25:58;;;;;;;0.67;0.57;;;14.10;99.90;;;;;;4927439;29;20446;-61
2022/05/29 02:28:37;;;;;;;1.80;0.63;;;14.00;99.90;;;;;;4928192;29;20455;-60
2022/05/29 02:31:18;;;;;;;1.00;0.70;;;14.00;99.90;;;;;;4928203;29;20439;-61
2022/05/29 02:34:00;;;;;;;0.60;0.60;;;14.00;99.90;;;;;;4927845;29;20458;-61
2022/05/29 02:36:41;;;;;;;0.63;0.40;;;14.00;99.90;;;;;;4927992;29;21038;-60
2022/05/29 02:39:25;;;;;;;1.07;0.40;;;14.00;99.90;;;;;;4926642;29;20453;-60
2022/05/29 02:42:11;;;;;;;1.30;0.43;;;14.00;99.90;;;;;;4927928;29;20796;-61
2022/05/29 02:45:01;;;;;;;0.70;0.50;;;14.00;99.90;;;;;;4927439;29;20489;-61
2022/05/29 02:47:44;;;;;;;1.23;0.43;;;14.00;99.90;;;;;;4927749;29;20935;-61
2022/05/29 02:50:40;;;;;;;0.77;0.77;;;14.00;99.90;;;;;;4927335;29;20454;-61
2022/05/29 02:53:16;;;;;;;0.93;0.50;;;13.90;99.90;;;;;;4927763;29;20458;-61
2022/05/29 02:55:48;;;;;;;0.40;0.40;;;13.80;99.90;;;;;;4927127;29;20497;-61
2022/05/29 02:58:27;;;;;;;0.40;0.30;;;13.70;99.90;;;;;;4927713;29;20450;-60
2022/05/29 03:01:21;;;;;;;0.57;0.40;;;13.70;99.90;;;;;;4927305;29;20462;-60
2022/05/29 03:04:20;;;;;;;0.50;0.37;;;13.70;99.90;;;;;;4927315;29;20978;-61
2022/05/29 03:06:57;;;;;;;0.50;0.40;;;13.70;99.90;;;;;;4927583;29;20454;-60
2022/05/29 03:09:50;;;;;;;0.70;0.30;;;13.80;99.90;;;;;;4926301;29;20458;-60
2022/05/29 03:12:37;;;;;;;0.43;0.20;;;13.60;99.90;;;;;;4927399;29;20482;-60
2022/05/29 03:15:20;;;;;;;0.60;0.40;;;13.60;99.90;;;;;;4927028;29;20484;-60
2022/05/29 03:18:06;;;;;;;0.60;0.57;;;13.50;99.90;;;;;;4920658;29;20451;-61
2022/05/29 03:20:45;;;;;;;0.50;0.40;;;13.40;99.90;;;;;;4907873;29;21281;-61
2022/05/29 03:23:25;;;;;;;0.40;0.30;;;13.40;99.90;;;;;;4908472;29;20482;-60
2022/05/29 03:26:00;;;;;;;0.40;0.30;;;13.40;99.90;;;;;;4907639;29;20432;-60
2022/05/29 03:28:41;;;;;;;0.97;0.40;;;13.40;99.90;;;;;;4908122;29;20459;-60
2022/05/29 03:31:18;;;;;;;1.20;0.50;;;13.40;99.90;;;;;;4908021;29;20532;-61
2022/05/29 03:33:50;;;;;;;0.47;0.37;;;13.40;99.90;;;;;;4907989;29;20750;-61
2022/05/29 03:36:25;;;;;;;1.60;0.60;;;13.30;99.90;;;;;;4908057;29;20816;-61
2022/05/29 03:39:00;;;;;;;0.40;0.30;;;13.30;99.90;;;;;;4906910;29;20463;-60
2022/05/29 03:41:39;;;;;;;0.60;0.40;;;13.20;99.90;;;;;;4908335;29;20458;-60
2022/05/29 03:44:12;;;;;;;0.70;0.40;;;13.10;99.90;;;;;;4919951;29;20450;-61
2022/05/29 03:46:44;;;;;;;0.40;0.30;;;13.00;99.90;;;;;;4926829;29;20451;-60
2022/05/29 03:49:21;;;;;;;0.43;0.43;;;13.00;99.90;;;;;;4926191;29;20455;-60
2022/05/29 03:51:55;;;;;;;1.00;0.20;;;13.00;99.90;;;;;;4926290;29;20450;-60
2022/05/29 03:54:27;;;;;;;1.33;0.30;;;13.00;99.90;;;;;;4925667;29;20469;-60
2022/05/29 03:56:58;;;;;;;0.60;0.40;;;12.90;99.90;;;;;;4926688;29;20902;-60
2022/05/29 03:59:33;;;;;;;3.23;0.50;;;12.80;99.90;;;;;;4926469;29;20453;-61
2022/05/29 04:02:04;;;;;;;1.03;0.30;;;12.70;99.90;;;;;;4926659;29;20458;-60
2022/05/29 04:04:35;;;;;;;0.50;0.40;;;12.60;99.90;;;;;;4926400;29;20459;-60
2022/05/29 04:07:06;;;;;;;0.70;0.50;;;12.50;99.90;;;;;;4926354;29;20459;-60
2022/05/29 04:12:26;;;;;;;0.40;0.40;;;12.50;99.90;;;;;;4926620;29;20566;-60
2022/05/29 04:14:57;;;;;;;1.77;0.50;;;12.50;99.90;;;;;;4926379;29;20430;-60
2022/05/29 04:17:31;;;;;;;1.17;1.07;;;12.60;99.90;;;;;;4923102;29;20490;-60
2022/05/29 04:20:06;;;;;;;0.50;0.50;;;12.50;99.90;;;;;;4906861;29;20459;-60
2022/05/29 04:22:42;;;;;;;0.70;0.43;;;12.50;99.90;;;;;;4907319;29;20810;-60
2022/05/29 04:25:17;;;;;;;1.23;0.60;;;12.50;99.90;;;;;;4906380;29;20458;-60
2022/05/29 04:27:48;;;;;;;0.53;0.50;;;12.50;99.90;;;;;;4907202;29;20454;-60
2022/05/29 04:30:19;;;;;;;1.03;0.80;;;12.40;99.90;;;;;;4906648;29;20452;-60
2022/05/29 04:33:01;;;;;;;0.63;0.47;;;12.40;99.90;;;;;;4907396;29;20447;-60
2022/05/29 04:35:37;;;;;;;0.60;0.43;;;12.30;99.90;;;;;;4906801;29;20469;-60
2022/05/29 04:38:14;;;;;;;0.60;0.60;;;12.30;99.90;;;;;;4907132;29;20519;-60
2022/05/29 04:40:47;;;;;;;3.80;0.60;;;12.30;99.90;;;;;;4906054;29;20875;-60
2022/05/29 04:43:18;;;;;;;1.93;0.70;;;12.30;99.90;;;;;;4912660;29;20454;-60
2022/05/29 04:45:57;;;;;;;0.50;0.50;;;12.30;99.90;;;;;;4925702;29;20545;-61
2022/05/29 04:48:28;;;;;;;0.83;0.83;;;12.30;99.90;;;;;;4925858;29;20529;-61
2022/05/29 04:51:02;;;;;;;2.60;1.00;;;12.30;99.90;;;;;;4925531;29;20454;-61
2022/05/29 04:53:36;;;;;;;0.80;0.80;;;12.30;99.90;;;;;;4925961;29;20473;-60
2022/05/29 04:56:10;;;;;;;0.50;0.50;;;12.30;99.90;;;;;;4925106;29;20966;-60
2022/05/29 04:58:41;;;;;;;1.00;0.80;;;12.30;99.90;;;;;;4925912;29;20966;-60
2022/05/29 05:01:12;;;;;;;1.07;0.80;;;12.30;99.90;;;;;;4925663;29;20828;-60
2022/05/29 05:03:46;;;;;;;1.13;1.03;;;12.30;99.90;;;;;;4927644;29;20470;-61
2022/05/29 05:06:17;;;;;;;0.53;0.50;;;12.30;99.90;;;;;;4930186;29;20447;-60
2022/05/29 05:08:48;;;;;;;0.83;0.63;;;12.20;99.90;;;;;;4929117;29;20450;-60
2022/05/29 05:11:21;;;;;;;0.70;0.60;;;12.30;99.90;;;;;;4929648;29;20794;-60
2022/05/29 05:13:55;;;;;;;0.80;0.70;;;12.30;99.90;;;;;;4929607;29;20447;-60
2022/05/29 05:16:28;;;;;;;0.70;0.60;;;12.20;99.90;;;;;;4929847;29;20498;-60
2022/05/29 05:19:01;;;;;;;1.90;0.70;;;12.20;99.90;;;;;;4914064;29;21016;-60
2022/05/29 05:21:32;;;;;;;1.37;0.60;;;12.20;99.90;;;;;;4910472;29;20457;-61
2022/05/29 05:24:08;;;;;;;0.50;0.40;;;12.20;99.90;;;;;;4910005;29;20459;-60
2022/05/29 05:26:41;;;;;;;0.67;0.50;;;12.20;99.90;;;;;;4910537;29;20460;-60
2022/05/29 05:29:13;;;;;;;2.20;0.70;;;12.20;99.90;;;;;;4910068;29;20796;-60
2022/05/29 05:31:57;;;;;;;0.40;0.30;;;12.20;99.90;;;;;;4909326;29;20451;-60
2022/05/29 05:34:31;;;;;;;0.50;0.50;;;12.20;99.90;;;;;;4910483;29;20554;-60
2022/05/29 05:37:16;;;;;;;1.90;0.70;;;12.10;99.90;;;;;;4910651;29;20499;-60
2022/05/29 05:39:52;;;;;;;0.50;0.43;;;12.20;99.90;;;;;;4909838;29;20447;-60
2022/05/29 05:42:24;;;;;;;0.40;0.40;;;12.10;99.90;;;;;;4910264;29;20461;-60
2022/05/29 05:44:57;;;;;;;0.43;0.33;;;12.10;99.90;;;;;;4928148;29;20569;-60
2022/05/29 05:47:31;;;;;;;0.67;0.60;;;12.10;99.90;;;;;;4929233;29;20511;-60
2022/05/29 05:50:02;;;;;;;0.77;0.37;;;12.10;99.90;;;;;;4929056;29;20465;-60
2022/05/29 05:52:50;;;;;;;;;;;;;;;;;;;;;
2022/05/29 05:55:21;;;;;;;1.13;0.40;;;12.10;99.90;;;;;;4928288;29;20452;-60
2022/05/29 05:57:55;;;;;;;1.80;0.30;;;12.00;99.90;;;;;;4929403;29;20574;-60
2022/05/29 06:00:31;;;;;;;0.50;0.40;;;12.00;99.90;;;;;;4928938;29;20465;-60
2022/05/29 06:03:04;;;;;;;0.40;0.30;;;12.10;99.90;;;;;;4929147;29;20577;-60
2022/05/29 06:05:37;;;;;;;0.40;0.40;;;12.20;99.90;;;;;;4928704;29;20459;-60
2022/05/29 06:08:15;;;;;;;1.23;0.40;;;12.20;99.90;;;;;;4928934;29;20490;-60
2022/05/29 06:10:49;;;;;;;0.87;0.50;;;12.20;99.90;;;;;;4928138;29;20550;-60
2022/05/29 06:13:21;;;;;;;0.40;0.30;;;12.10;99.90;;;;;;4928896;29;20455;-61
2022/05/29 06:15:54;;;;;;;0.50;0.30;;;12.10;99.90;;;;;;4928054;29;20469;-59
2022/05/29 06:18:28;;;;;;;0.70;0.40;;;12.10;99.90;;;;;;4917273;29;20494;-59
2022/05/29 06:21:06;;;;;;;0.87;0.40;;;12.10;99.90;;;;;;4909851;29;20487;-60
2022/05/29 06:23:42;;;;;;;0.60;0.30;;;12.10;99.90;;;;;;4910121;29;20837;-60
2022/05/29 06:26:16;;;;;;;1.53;0.43;;;12.10;99.90;;;;;;4909925;29;20486;-60
2022/05/29 06:28:49;;;;;;;0.83;0.40;;;12.10;99.90;;;;;;4909893;29;20439;-60
2022/05/29 06:31:20;;;;;;;0.70;0.40;;;12.10;99.90;;;;;;4909719;29;20939;-60
2022/05/29 06:33:58;;;;;;;0.63;0.50;;;12.10;99.90;;;;;;4909511;29;20484;-60
2022/05/29 06:36:29;;;;;;;0.50;0.30;;;12.10;99.90;;;;;;4909760;29;20823;-60
2022/05/29 06:39:00;;;;;;;0.40;0.40;;;12.10;99.90;;;;;;4908531;29;20459;-60
2022/05/29 06:41:31;;;;;;;0.47;0.47;;;12.10;99.90;;;;;;4909478;29;20467;-60
2022/05/29 06:44:05;;;;;;;0.50;0.50;;;12.10;99.90;;;;;;4920074;29;20449;-65
2022/05/29 06:46:36;;;;;;;0.47;0.47;;;12.10;99.90;;;;;;4928665;29;20449;-60
2022/05/29 06:49:13;;;;;;;1.00;0.50;;;12.10;99.90;;;;;;4927950;29;20455;-60
2022/05/29 06:51:44;;;;;;;0.53;0.50;;;12.10;99.90;;;;;;4928069;29;20462;-60
2022/05/29 06:54:15;;;;;;;0.70;0.60;;;12.10;99.90;;;;;;4927375;29;20481;-60
2022/05/29 06:56:46;;;;;;;0.93;0.53;;;12.00;99.90;;;;;;4928412;29;20470;-60
2022/05/29 06:59:20;;;;;;;0.70;0.70;;;12.00;99.90;;;;;;4927914;29;20464;-60
2022/05/29 07:07:28;;;;;;;0.50;0.50;;;12.00;99.90;;;;;;4928162;29;20504;-60
2022/05/29 07:09:59;;;;;;;0.60;0.60;;;12.00;99.90;;;;;;4926924;29;20458;-60
2022/05/29 07:12:41;;;;;;;0.70;0.70;;;12.00;99.90;;;;;;4927963;29;20474;-60
2022/05/29 07:15:15;;;;;;;0.87;0.80;;;12.00;99.90;;;;;;4927527;29;20477;-60
2022/05/29 07:17:48;;;;;;;0.57;0.57;;;11.90;99.90;;;;;;4921818;29;20514;-60
2022/05/29 07:20:19;;;;;;;0.60;0.60;;;11.80;99.90;;;;;;4908699;29;20467;-60
2022/05/29 07:22:52;;;;;;;1.10;0.60;;;11.90;99.90;;;;;;4908625;29;20543;-60
2022/05/29 07:25:25;;;;;;;0.70;0.50;;;11.90;99.90;;;;;;4907930;29;20456;-60
2022/05/29 07:27:58;;;;;;;0.80;0.80;;;12.00;99.90;;;;;;4907876;29;20527;-60
2022/05/29 07:30:32;;;;;;;0.60;0.60;;;11.90;99.90;;;;;;4908490;29;20518;-60
2022/05/29 07:33:03;;;;;;;0.80;0.80;;;12.00;99.90;;;;;;4908560;29;20481;-60
2022/05/29 07:35:34;;;;;;;0.87;0.87;;;12.00;99.90;;;;;;4908710;29;20954;-60
2022/05/29 07:38:05;;;;;;;1.43;0.70;;;11.90;99.90;;;;;;4908560;29;20491;-60
2022/05/29 07:40:38;;;;;;;1.07;0.80;;;12.00;99.90;;;;;;4907424;29;20460;-60
2022/05/29 07:43:21;;;;;;;4.63;1.17;;;12.00;99.90;;;;;;4912431;29;20465;-60
2022/05/29 07:45:58;;;;;;;0.70;0.70;;;11.90;99.90;;;;;;4926931;29;20482;-60
2022/05/29 07:48:32;;;;;;;2.53;0.80;;;11.90;99.90;;;;;;4926860;29;20455;-60
2022/05/29 07:51:03;;;;;;;0.90;0.90;;;11.90;99.90;;;;;;4927138;29;20438;-60
2022/05/29 07:53:33;;;;;;;1.37;1.23;;;11.80;99.90;;;;;;4927024;29;20455;-60
2022/05/29 07:56:11;;;;;;;1.17;1.07;;;11.90;99.90;;;;;;4926413;29;20526;-60
2022/05/29 07:58:44;;;;;;;1.03;0.93;;;11.90;99.90;;;;;;4926693;29;20505;-60
2022/05/29 08:01:19;;;;;;;1.80;1.47;;;12.00;99.90;;;;;;4926898;29;20454;-60
2022/05/29 08:03:53;;;;;;;1.20;0.77;;;12.00;99.90;;;;;;4926417;29;20470;-60
2022/05/29 08:06:24;;;;;;;0.83;0.83;;;12.00;99.90;;;;;;4926968;29;20454;-60
2022/05/29 08:08:54;;;;;;;1.97;1.17;;;12.00;99.90;;;;;;4925820;29;20495;-60
2022/05/29 08:11:25;;;;;;;0.80;0.80;;;11.90;99.90;;;;;;4926841;29;21128;-60
2022/05/29 08:13:56;;;;;;;1.13;1.00;;;11.90;99.90;;;;;;4926373;29;20454;-60
2022/05/29 08:16:36;;;;;;;1.00;0.90;;;11.80;99.90;;;;;;4926935;29;20451;-60
2022/05/29 08:19:09;;;;;;;0.93;0.93;;;11.90;99.90;;;;;;4910114;29;20602;-60
2022/05/29 08:21:45;;;;;;;1.63;1.53;;;11.90;99.90;;;;;;4907872;29;20605;-60
2022/05/29 08:30:42;;;;;;;1.50;1.40;;;12.00;99.90;;;;;;4907466;29;20459;-60
2022/05/29 08:33:26;;;;;;;1.20;1.10;;;11.90;99.90;;;;;;4907809;29;20479;-60
2022/05/29 08:36:00;;;;;;;1.10;1.03;;;11.80;99.90;;;;;;4907803;29;20442;-60
2022/05/29 08:38:35;;;;;;;1.33;1.27;;;11.80;99.90;;;;;;4907026;29;20513;-60
2022/05/29 08:41:09;;;;;;;0.80;0.80;;;11.80;99.90;;;;;;4906723;29;20459;-60
2022/05/29 08:44:00;;;;;;;2.23;0.80;;;11.70;99.90;;;;;;4915905;29;20484;-60
2022/05/29 08:46:38;;;;;;;1.27;1.00;;;11.70;99.90;;;;;;4926260;29;20465;-60
2022/05/29 08:49:16;;;;;;;2.03;1.20;;;11.60;99.90;;;;;;4925758;29;20469;-60
2022/05/29 08:52:05;;;;;;;0.80;0.80;;;11.60;99.90;;;;;;4926383;29;20545;-61
2022/05/29 08:54:48;;;;;;;0.97;0.97;;;11.70;99.90;;;;;;4925393;29;20458;-60
2022/05/29 08:57:42;;;;;;;0.97;0.97;;;11.70;99.90;;;;;;4926261;29;20446;-60
2022/05/29 09:00:20;;;;;;;0.80;0.80;;;11.70;99.90;;;;;;4926180;29;20451;-60
2022/05/29 09:03:05;;;;;;;0.70;0.70;;;11.70;99.90;;;;;;4926271;29;20545;-60
2022/05/29 09:05:43;;;;;;;0.93;0.93;;;11.70;99.90;;;;;;4925739;29;20458;-61
2022/05/29 09:08:19;;;;;;;1.13;0.90;;;11.60;99.90;;;;;;4925841;29;20469;-59
2022/05/29 09:10:53;;;;;;;0.80;0.80;;;11.70;99.90;;;;;;4925174;29;20465;-60
2022/05/29 09:13:30;;;;;;;1.00;1.00;;;11.70;99.90;;;;;;4925840;29;20469;-60
2022/05/29 09:16:07;;;;;;;2.37;1.27;;;11.60;99.90;;;;;;4926109;29;20466;-60
2022/05/29 09:18:40;;;;;;;0.53;0.53;;;11.70;99.90;;;;;;4913352;29;20513;-60
2022/05/29 09:21:45;;;;;;;0.60;0.60;;;11.60;99.90;;;;;;4907517;29;20455;-60
2022/05/29 09:24:29;;;;;;;2.00;0.50;;;11.50;99.90;;;;;;4905903;29;20482;-59
2022/05/29 09:27:00;;;;;;;1.00;0.50;;;11.50;99.90;;;;;;4907045;29;20458;-60
2022/05/29 09:29:36;;;;;;;0.90;0.77;;;11.50;99.90;;;;;;4906720;29;20459;-60
2022/05/29 09:32:11;;;;;;;1.17;0.60;;;11.50;99.90;;;;;;4907057;29;20459;-60
2022/05/29 09:34:43;;;;;;;0.50;0.47;;;11.40;99.90;;;;;;4906742;29;20461;-60
2022/05/29 09:37:25;;;;;;;0.50;0.50;;;11.40;99.90;;;;;;4907394;29;20463;-60
2022/05/29 09:40:01;;;;;;;1.57;0.70;;;11.40;99.90;;;;;;4906497;29;20512;-60
2022/05/29 09:42:42;;;;;;;1.07;0.60;;;11.40;99.90;;;;;;4907649;29;20536;-60
2022/05/29 09:45:16;;;;;;;0.60;0.60;;;11.50;99.90;;;;;;4925556;29;20922;-60
2022/05/29 09:50:51;;;;;;;0.87;0.80;;;11.50;99.90;;;;;;4927080;29;20451;-60
2022/05/29 09:53:26;;;;;;;1.10;0.93;;;11.40;99.90;;;;;;4929403;29;20962;-60
2022/05/29 09:56:03;;;;;;;0.67;0.67;;;11.30;99.90;;;;;;4928477;29;20449;-60
2022/05/29 09:58:45;;;;;;;0.80;0.80;;;11.30;99.90;;;;;;4929486;29;20437;-60
2022/05/29 10:01:34;;;;;;;0.60;0.60;;;11.30;99.90;;;;;;4929554;29;20443;-60
2022/05/29 10:04:09;;;;;;;0.70;0.70;;;11.20;99.90;;;;;;4928990;29;20450;-60
2022/05/29 10:06:46;;;;;;;1.30;0.90;;;11.20;99.90;;;;;;4928790;29;20459;-60
2022/05/29 10:09:31;;;;;;;1.80;0.87;;;11.20;99.90;;;;;;4928009;29;20509;-60
2022/05/29 10:12:24;;;;;;;0.50;0.50;;;11.20;99.90;;;;;;4929081;29;20455;-60
2022/05/29 10:15:05;;;;;;;1.00;0.80;;;11.10;99.90;;;;;;4928407;29;20801;-60
2022/05/29 10:17:38;;;;;;;1.67;0.60;;;11.10;99.90;;;;;;4928855;29;20800;-60
2022/05/29 10:20:33;;;;;;;0.80;0.80;;;11.00;99.90;;;;;;4928340;29;20529;-60
2022/05/29 10:23:07;;;;;;;0.90;0.70;;;11.00;99.90;;;;;;4928796;29;20797;-60
2022/05/29 10:25:42;;;;;;;1.30;0.90;;;11.00;99.90;;;;;;4927751;29;20451;-59
2022/05/29 10:28:22;;;;;;;1.13;0.53;;;11.00;99.90;;;;;;4928580;29;20454;-60
2022/05/29 10:31:00;;;;;;;0.60;0.60;;;11.00;99.90;;;;;;4928268;29;20473;-60
2022/05/29 10:33:35;;;;;;;0.60;0.60;;;11.00;99.90;;;;;;4928344;29;20810;-59
2022/05/29 10:36:17;;;;;;;1.07;0.97;;;11.00;99.90;;;;;;4928030;29;20454;-60
2022/05/29 10:38:48;;;;;;;1.37;1.00;;;11.10;99.90;;;;;;4927810;29;20458;-60
2022/05/29 10:41:35;;;;;;;0.83;0.70;;;11.00;99.90;;;;;;4928594;29;20462;-60
2022/05/29 10:44:49;;;;;;;2.70;1.00;;;11.00;99.90;;;;;;4927787;29;20554;-60
2022/05/29 10:47:30;;;;;;;1.30;1.20;;;11.00;99.90;;;;;;4928351;29;20449;-60
2022/05/29 10:50:15;;;;;;;1.00;1.00;;;11.00;99.90;;;;;;4927915;29;20451;-60
2022/05/29 10:53:07;;;;;;;1.77;1.17;;;11.00;99.90;;;;;;4928387;29;20439;-60
2022/05/29 10:55:50;;;;;;;2.07;1.10;;;11.00;99.90;;;;;;4926905;29;20466;-60
2022/05/29 10:58:58;;;;;;;1.63;0.90;;;10.90;99.90;;;;;;4928050;29;20965;-60
2022/05/29 11:05:04;;;;;;;5.17;1.30;;;11.00;99.90;;;;;;4927639;29;20458;-60
2022/05/29 11:07:49;;;;;;;2.00;1.20;;;10.90;99.90;;;;;;4927715;29;20455;-60
2022/05/29 11:10:58;;;;;;;3.07;1.60;;;10.90;99.90;;;;;;4926576;29;20458;-60
2022/05/29 11:14:03;;;;;;;2.70;1.50;;;10.90;99.90;;;;;;4927416;29;20518;-60
2022/05/29 11:16:53;;;;;;;1.60;1.00;;;10.80;99.90;;;;;;4927478;29;20473;-60
2022/05/29 11:19:56;;;;;;;2.50;0.90;;;10.80;99.90;;;;;;4908084;29;20495;-60
2022/05/29 11:22:31;;;;;;;5.93;1.30;;;10.80;99.90;;;;;;4899532;29;20482;-60
2022/05/29 11:25:16;;;;;;;2.97;1.40;;;10.80;99.90;;;;;;4907567;29;20482;-60
2022/05/29 11:28:14;;;;;;;2.40;1.50;;;10.80;99.90;;;;;;4908650;29;20463;-60
2022/05/29 11:30:59;;;;;;;6.10;3.10;;;10.80;99.90;;;;;;4907952;29;20475;-60
2022/05/29 11:33:50;;;;;;;4.30;2.10;;;10.80;99.90;;;;;;4908366;29;20943;-60
2022/05/29 11:36:41;;;;;;;2.03;1.70;;;10.70;99.90;;;;;;4908484;29;20459;-60
2022/05/29 11:39:30;;;;;;;2.43;1.67;;;10.70;99.90;;;;;;4907248;29;20524;-60
2022/05/29 11:42:07;;;;;;;2.47;1.60;;;10.70;99.90;;;;;;4908448;29;20471;-60
2022/05/29 11:44:51;;;;;;;6.40;1.80;;;10.60;99.90;;;;;;4924204;29;20475;-60
2022/05/29 11:53:23;;;;;;;2.80;1.80;;;10.70;99.90;;;;;;4925433;29;20480;-61
2022/05/29 11:55:58;;;;;;;3.00;2.30;;;10.60;99.90;;;;;;4925937;29;20455;-60
2022/05/29 11:58:34;;;;;;;3.67;2.47;;;10.60;99.90;;;;;;4926583;29;20455;-60
2022/05/29 12:01:16;;;;;;;5.00;2.07;;;10.60;99.90;;;;;;4926712;29;20494;-60
2022/05/29 12:03:56;;;;;;;2.73;1.70;;;10.60;99.90;;;;;;4926666;29;20465;-60
2022/05/29 12:06:34;;;;;;;3.67;2.03;;;10.60;99.90;;;;;;4926677;29;20792;-60
2022/05/29 12:09:17;;;;;;;3.57;2.40;;;10.70;99.90;;;;;;4925724;29;20710;-60
2022/05/29 12:11:59;;;;;;;6.13;1.63;;;10.70;99.90;;;;;;4926812;29;20533;-60
2022/05/29 12:14:41;;;;;;;5.37;2.50;;;10.70;99.90;;;;;;4926057;29;20519;-60
2022/05/29 12:17:21;;;;;;;3.57;2.50;;;10.70;99.90;;;;;;4925109;29;20485;-59
2022/05/29 12:20:05;;;;;;;5.07;2.15;;;10.70;99.90;;;;;;4907134;29;20582;-59
2022/05/29 12:22:47;;;;;;;3.00;2.20;;;10.60;99.90;;;;;;4907652;29;20233;-59
2022/05/29 12:25:30;;;;;;;4.77;2.03;;;10.60;99.90;;;;;;4906662;29;20451;-60
2022/05/29 12:28:05;;;;;;;3.77;2.50;;;10.60;99.90;;;;;;4907367;29;20462;-60
2022/05/29 12:30:42;;;;;;;5.90;2.30;;;10.60;99.90;;;;;;4907055;29;20458;-60
2022/05/29 12:33:18;;;;;;;2.60;1.80;;;10.60;99.90;;;;;;4907319;29;20471;-60
2022/05/29 12:35:57;;;;;;;6.37;2.73;;;10.50;99.90;;;;;;4907164;29;20456;-60
2022/05/29 12:38:49;;;;;;;6.70;2.63;;;10.50;99.90;;;;;;4907126;29;20948;-60
2022/05/29 12:41:54;;;;;;;5.90;2.57;;;10.50;99.90;;;;;;4906885;29;20495;-60
2022/05/29 12:44:53;;;;;;;4.07;2.20;;;10.50;99.90;;;;;;4900995;29;20487;-60
2022/05/29 12:47:48;;;;;;;7.47;2.93;;;10.50;99.90;;;;;;4906779;29;20452;-60
2022/05/29 12:50:57;;;;;;;4.03;2.30;;;10.50;99.90;;;;;;4906438;29;20475;-60
2022/05/29 12:54:02;;;;;;;3.73;2.73;;;10.50;99.90;;;;;;4906489;29;20940;-60
2022/05/29 12:57:06;;;;;;;4.00;2.50;;;10.60;99.90;;;;;;4906857;29;20956;-60
2022/05/29 13:00:09;;;;;;;3.80;2.50;;;10.50;99.90;;;;;;4906753;29;20455;-60
2022/05/29 13:03:04;;;;;;;4.68;2.75;;;10.60;99.90;;;;;;4904858;29;20606;-60
2022/05/29 13:06:10;;;;;;;4.57;2.63;;;10.60;99.90;;;;;;4906682;29;20595;-60
2022/05/29 13:09:06;;;;;;;4.60;2.67;;;10.60;99.90;;;;;;4906422;29;20456;-60
2022/05/29 13:11:40;;;;;;;6.27;2.50;;;10.60;99.90;;;;;;4906410;29;20462;-60
2022/05/29 13:14:21;;;;;;;6.77;2.33;;;10.60;99.90;;;;;;4906752;29;20455;-60
2022/05/29 13:17:08;;;;;;;4.33;2.53;;;10.60;99.90;;;;;;4906574;29;20451;-60
2022/05/29 13:20:13;;;;;;;3.00;2.13;;;10.60;99.90;;;;;;4906348;29;20448;-60
2022/05/29 13:22:55;;;;;;;3.10;2.10;;;10.70;99.90;;;;;;4848868;29;20454;-60
2022/05/29 13:25:30;;;;;;;4.00;2.27;;;10.70;99.90;;;;;;4848754;29;20500;-60
2022/05/29 13:28:49;;;;;;;6.63;2.60;;;10.70;99.90;;;;;;4852741;29;20457;-60
2022/05/29 13:31:21;;;;;;;3.00;2.63;;;10.70;99.90;;;;;;4852636;29;20211;-60
2022/05/29 13:34:20;;;;;;;3.33;2.50;;;10.80;99.90;;;;;;4852036;29;20537;-60
2022/05/29 13:37:22;;;;;;;4.27;2.30;;;10.80;99.90;;;;;;4852264;29;20505;-60
2022/05/29 13:40:00;;;;;;;4.40;2.13;;;10.80;99.90;;;;;;4851094;29;20833;-60
2022/05/29 13:42:50;;;;;;;2.43;2.00;;;10.80;99.90;;;;;;4852218;29;20626;-60
2022/05/29 13:46:05;;;;;;;4.50;2.77;;;10.90;99.90;;;;;;4851526;29;20478;-60
2022/05/29 13:49:08;;;;;;;4.60;1.80;;;11.00;99.90;;;;;;4851549;29;20916;-60
2022/05/29 13:51:44;;;;;;;3.77;2.13;;;11.00;99.90;;;;;;4851978;29;20473;-60
2022/05/29 13:54:26;;;;;;;2.77;2.07;;;11.00;99.90;;;;;;4894473;29;20457;-60
2022/05/29 13:57:10;;;;;;;4.57;2.30;;;11.10;99.90;;;;;;4910046;29;20546;-59
2022/05/29 14:05:37;;;;;;;3.20;2.07;;;11.20;99.90;;;;;;4909629;29;20455;-60
2022/05/29 14:08:31;;;;;;;3.00;2.27;;;11.20;99.90;;;;;;4923822;29;20451;-60
2022/05/29 14:11:18;;;;;;;2.50;1.97;;;11.30;99.90;;;;;;4927788;29;21111;-61
2022/05/29 14:13:52;;;;;;;9.07;1.90;;;11.30;99.90;;;;;;4928688;29;20450;-60
2022/05/29 14:16:52;;;;;;;3.60;1.90;;;11.30;99.90;;;;;;4928488;29;20469;-60
2022/05/29 14:19:50;;;;;;;2.23;2.03;;;11.30;99.90;;;;;;4887866;29;20547;-60
2022/05/29 14:22:48;;;;;;;5.63;1.97;;;11.50;99.90;;;;;;4888437;29;20492;-60
2022/05/29 14:25:34;;;;;;;8.90;2.60;;;11.50;99.90;;;;;;4887289;29;20461;-60
2022/05/29 14:28:20;;;;;;;2.93;2.50;;;11.60;99.90;;;;;;4888024;29;20448;-60
2022/05/29 14:31:22;;;;;;;2.90;2.33;;;11.60;99.90;;;;;;4887935;29;20456;-60
2022/05/29 14:34:41;;;;;;;3.23;1.77;;;11.50;99.90;;;;;;4887375;29;20834;-61